الصفحة الرئيسية
METAR-TAF:

METAR-TAF

مطار :

Thoothukudi, الهند

دائرة عرض: 8-43-27N, خط طول: 78-01-33E, ارتفاع: 39 متر

مراقبة الطقس الحالي

تاريخ ووقت الإصدار 11ساعات و 38 دقيقة قبل الساعة 10:00UTC
ريح 10 عقدة من الغرب تتزايد حتى 20 عقدة
درجة الحرارة 38°درجة مئوية
الرطوبة 42%
ضغط 1003 hPa
الرؤية: 7000 متر
غيوم قليلة على ارتفاع 2000 قدم
غيوم قليلة على ارتفاع 2500 قدم, مزن ركامية عمودية.

METAR: VOTK 021000Z 28010G20KT 7000 FEW020 FEW025TCU 38/23 Q1003 NOSIG

زمن: 03:08 (21:38 UTC)


TAF: مفقودة

أرصاد الطقس والتوقعات من أكثر من 4000 مطار (تقارير الطقس للمطار METAR والتنبؤ بالطقس بالمطارTAF).

المحطات المتاحة هي النقط الصفراء والحمراء على الخريطة.

حرك المؤشر فوق النقطة لمعرفة اسم المحطة.

ثم انقر لمعرفة أرصاد وتوقعات الطقس.

لتغيير الخارطة: اضغط على الأزرار الخضراء مع رمز الصليب الأسود للتكبير. على الزر الأخضر مع شرطة للتصغير، أو على الأسهم الخضراء للخرائط المجاورة.


METAR-TAF: